createdAt,value
2023-02-27T00:01:10.845Z,101155.00
2023-02-27T00:03:44.565Z,101158.60
2023-02-27T00:06:18.675Z,101156.60
2023-02-27T00:08:52.507Z,101156.20
2023-02-27T00:11:26.452Z,101160.40
2023-02-27T00:14:00.452Z,101159.00
2023-02-27T00:16:35.127Z,101161.40
2023-02-27T00:19:08.791Z,101160.40
2023-02-27T00:21:44.613Z,101159.60
2023-02-27T00:24:18.730Z,101161.40
2023-02-27T00:26:52.408Z,101161.20
2023-02-27T00:29:26.517Z,101163.00
2023-02-27T00:32:00.438Z,101163.40
2023-02-27T00:34:34.455Z,101164.00
2023-02-27T00:37:08.230Z,101164.60
2023-02-27T00:39:41.918Z,101162.60
2023-02-27T00:42:15.719Z,101160.20
2023-02-27T00:44:49.511Z,101166.40
2023-02-27T00:47:23.131Z,101161.60
2023-02-27T00:49:56.683Z,101161.00
2023-02-27T00:52:31.340Z,101161.20
2023-02-27T00:55:06.164Z,101163.80
2023-02-27T00:57:40.617Z,101163.00
2023-02-27T01:00:17.894Z,101163.60
2023-02-27T01:02:51.676Z,101157.20
2023-02-27T01:05:25.376Z,101151.80
2023-02-27T01:07:59.119Z,101145.00
2023-02-27T01:10:32.792Z,101149.40
2023-02-27T01:13:06.536Z,101150.40
2023-02-27T01:15:40.654Z,101151.20
2023-02-27T01:18:16.024Z,101149.00
2023-02-27T01:20:52.628Z,101146.40
2023-02-27T01:23:27.024Z,101149.80
2023-02-27T01:26:00.844Z,101148.20
2023-02-27T01:28:34.535Z,101151.00
2023-02-27T01:31:09.779Z,101148.80
2023-02-27T01:33:43.459Z,101153.60
2023-02-27T01:36:17.379Z,101151.80
2023-02-27T01:38:51.058Z,101149.00
2023-02-27T01:41:25.360Z,101150.80
2023-02-27T01:44:02.985Z,101153.00
2023-02-27T01:46:38.664Z,101161.00
2023-02-27T01:49:17.877Z,101164.80
2023-02-27T01:51:56.082Z,101161.80
2023-02-27T01:54:32.284Z,101158.80
2023-02-27T01:57:07.357Z,101157.60
2023-02-27T01:59:44.698Z,101159.60
2023-02-27T02:02:26.651Z,101166.00
2023-02-27T02:05:03.976Z,101168.20
2023-02-27T02:07:41.055Z,101169.60
2023-02-27T02:10:18.863Z,101171.60
2023-02-27T02:12:53.187Z,101173.20
2023-02-27T02:15:37.794Z,101176.20
2023-02-27T02:18:25.841Z,101171.60
2023-02-27T02:21:44.646Z,101175.40
2023-02-27T02:25:13.948Z,101175.40
2023-02-27T02:28:04.727Z,101176.00
2023-02-27T02:31:39.793Z,101176.60
2023-02-27T02:34:52.107Z,101180.80
2023-02-27T02:38:00.912Z,101176.60
2023-02-27T02:40:42.863Z,101185.80
2023-02-27T02:43:27.321Z,101188.20
2023-02-27T02:46:14.174Z,101191.80
2023-02-27T02:49:00.785Z,101197.80
2023-02-27T02:51:41.063Z,101198.20
2023-02-27T02:54:25.831Z,101201.00
2023-02-27T02:57:06.308Z,101197.40
2023-02-27T02:59:48.869Z,101208.00
2023-02-27T03:02:28.293Z,101211.40
2023-02-27T03:05:09.994Z,101215.40
2023-02-27T03:07:51.179Z,101218.20
2023-02-27T03:10:31.563Z,101224.40
2023-02-27T03:13:14.256Z,101228.60
2023-02-27T03:15:57.859Z,101220.60
2023-02-27T03:18:42.500Z,101232.80
2023-02-27T03:21:22.756Z,101231.20
2023-02-27T03:24:02.513Z,101234.00
2023-02-27T03:26:42.512Z,101235.80
2023-02-27T03:29:26.706Z,101241.40
2023-02-27T03:32:09.735Z,101234.60
2023-02-27T03:34:45.403Z,101241.40
2023-02-27T03:37:37.520Z,101244.20
2023-02-27T03:40:27.667Z,101247.40
2023-02-27T03:43:16.194Z,101243.80
2023-02-27T03:46:04.156Z,101243.60
2023-02-27T03:48:38.701Z,101243.20
2023-02-27T03:51:13.239Z,101248.00
2023-02-27T03:53:56.243Z,101248.00
2023-02-27T03:56:39.285Z,101257.00
2023-02-27T03:59:13.668Z,101255.60
2023-02-27T04:01:51.273Z,101252.00
2023-02-27T04:04:27.611Z,101258.80
2023-02-27T04:07:29.813Z,101254.60
2023-02-27T04:10:45.267Z,101267.40
2023-02-27T04:13:56.487Z,101272.40
2023-02-27T04:17:01.919Z,101268.00
2023-02-27T04:20:06.938Z,101269.20
2023-02-27T04:22:47.942Z,101277.80
2023-02-27T04:25:40.912Z,101282.20
2023-02-27T04:28:29.241Z,101278.00
2023-02-27T04:31:15.227Z,101281.00
2023-02-27T04:33:55.853Z,101282.00
2023-02-27T04:36:38.908Z,101279.40
2023-02-27T04:39:22.531Z,101285.80
2023-02-27T04:42:02.621Z,101284.40
2023-02-27T04:44:40.254Z,101278.40
2023-02-27T04:47:18.576Z,101276.60
2023-02-27T04:50:00.678Z,101282.20
2023-02-27T04:52:40.749Z,101281.20
2023-02-27T04:55:20.931Z,101278.60
2023-02-27T04:58:00.669Z,101287.20
2023-02-27T05:00:36.639Z,101290.60
2023-02-27T05:03:17.210Z,101296.20
2023-02-27T05:05:53.465Z,101294.20
2023-02-27T05:08:36.150Z,101295.00
2023-02-27T05:11:20.610Z,101300.20
2023-02-27T05:14:01.623Z,101298.80
2023-02-27T05:16:42.583Z,101301.40
2023-02-27T05:19:19.786Z,101307.00
2023-02-27T05:22:04.906Z,101298.40
2023-02-27T05:24:50.828Z,101307.60
2023-02-27T05:27:35.851Z,101310.00
2023-02-27T05:30:22.903Z,101314.40
2023-02-27T05:33:03.141Z,101316.60
2023-02-27T05:35:44.548Z,101314.40
2023-02-27T05:38:25.899Z,101311.00
2023-02-27T05:41:08.385Z,101313.80
2023-02-27T05:43:48.875Z,101315.80
2023-02-27T05:46:28.723Z,101325.40
2023-02-27T05:49:08.907Z,101321.20
2023-02-27T05:51:48.013Z,101328.40
2023-02-27T05:54:33.076Z,101328.80
2023-02-27T05:57:13.321Z,101331.20
2023-02-27T05:59:56.055Z,101332.40
2023-02-27T06:02:30.075Z,101333.40
2023-02-27T06:05:04.034Z,101341.20
2023-02-27T06:07:39.369Z,101339.80
2023-02-27T06:10:20.104Z,101341.60
2023-02-27T06:12:53.836Z,101345.00
2023-02-27T06:15:27.919Z,101339.80
2023-02-27T06:18:01.524Z,101343.20
2023-02-27T06:20:36.051Z,101337.20
2023-02-27T06:23:10.336Z,101341.80
2023-02-27T06:25:44.358Z,101346.60
2023-02-27T06:28:18.542Z,101345.40
2023-02-27T06:30:57.326Z,101345.00
2023-02-27T06:33:31.229Z,101346.80
2023-02-27T06:36:05.090Z,101350.80
2023-02-27T06:38:38.746Z,101350.00
2023-02-27T06:41:12.883Z,101353.40
2023-02-27T06:43:46.537Z,101359.60
2023-02-27T06:46:20.284Z,101358.20
2023-02-27T06:48:53.994Z,101362.40
2023-02-27T06:51:27.801Z,101365.20
2023-02-27T06:54:01.657Z,101366.40
2023-02-27T06:56:35.482Z,101370.40
2023-02-27T06:59:09.563Z,101371.40
2023-02-27T07:01:43.230Z,101371.40
2023-02-27T07:04:18.630Z,101381.80
2023-02-27T07:07:36.017Z,101386.00
2023-02-27T07:09:47.000Z,101385.00
2023-02-27T07:12:20.709Z,101388.60
2023-02-27T07:14:54.531Z,101385.80
2023-02-27T07:17:28.342Z,101385.20
2023-02-27T07:20:02.526Z,101386.40
2023-02-27T07:22:36.411Z,101383.20
2023-02-27T07:25:12.663Z,101389.40
2023-02-27T07:27:48.283Z,101397.20
2023-02-27T07:30:25.503Z,101392.20
2023-02-27T07:32:59.665Z,101400.60
2023-02-27T07:35:33.633Z,101401.20
2023-02-27T07:38:07.771Z,101403.40
2023-02-27T07:40:42.079Z,101396.00
2023-02-27T07:43:15.891Z,101397.20
2023-02-27T07:45:51.235Z,101393.40
2023-02-27T07:48:26.803Z,101400.80
2023-02-27T07:51:01.069Z,101397.60
2023-02-27T07:53:34.953Z,101394.40
2023-02-27T07:56:10.085Z,101401.20
2023-02-27T07:58:44.466Z,101397.80
2023-02-27T08:01:18.551Z,101405.40
2023-02-27T08:03:52.444Z,101404.00
2023-02-27T08:06:26.732Z,101404.40
2023-02-27T08:09:01.445Z,101401.00
2023-02-27T08:11:35.664Z,101407.20
2023-02-27T08:14:09.554Z,101402.20
2023-02-27T08:16:43.361Z,101403.40
2023-02-27T08:19:18.841Z,101397.20
2023-02-27T08:21:52.985Z,101397.80
2023-02-27T08:24:27.431Z,101396.20
2023-02-27T08:27:02.013Z,101400.20
2023-02-27T08:29:36.066Z,101400.20
2023-02-27T08:32:09.942Z,101401.80
2023-02-27T08:34:46.491Z,101400.00
2023-02-27T08:37:20.415Z,101399.80
2023-02-27T08:39:54.092Z,101393.00
2023-02-27T08:42:27.788Z,101404.00
2023-02-27T08:45:01.517Z,101400.60
2023-02-27T08:47:35.454Z,101402.20
2023-02-27T08:50:12.856Z,101405.80
2023-02-27T08:52:47.769Z,101397.20
2023-02-27T08:55:21.966Z,101398.40
2023-02-27T08:57:56.270Z,101399.20
2023-02-27T09:00:31.089Z,101393.20
2023-02-27T09:03:07.201Z,101398.40
2023-02-27T09:05:42.103Z,101405.60
2023-02-27T09:08:16.693Z,101408.60
2023-02-27T09:10:51.001Z,101409.00
2023-02-27T09:13:25.139Z,101413.40
2023-02-27T09:15:59.467Z,101416.40
2023-02-27T09:18:33.451Z,101417.40
2023-02-27T09:21:08.294Z,101421.20
2023-02-27T09:23:42.715Z,101422.40
2023-02-27T09:26:17.664Z,101423.60
2023-02-27T09:28:51.503Z,101422.20
2023-02-27T09:31:26.637Z,101422.60
2023-02-27T09:34:01.769Z,101423.20
2023-02-27T09:36:36.269Z,101427.00
2023-02-27T09:39:11.438Z,101419.60
2023-02-27T09:42:00.347Z,101418.20
2023-02-27T09:44:47.426Z,101415.40
2023-02-27T09:47:30.244Z,101416.80
2023-02-27T09:50:08.985Z,101420.40
2023-02-27T09:52:45.526Z,101423.40
2023-02-27T09:55:26.313Z,101422.00
2023-02-27T09:58:09.004Z,101421.60
2023-02-27T10:00:54.114Z,101418.20
2023-02-27T10:03:57.393Z,101423.80
2023-02-27T10:06:38.008Z,101428.40
2023-02-27T10:09:27.517Z,101423.20
2023-02-27T10:12:20.903Z,101419.80
2023-02-27T10:14:59.964Z,101422.60
2023-02-27T10:17:40.189Z,101423.00
2023-02-27T10:20:25.383Z,101424.40
2023-02-27T10:23:03.171Z,101422.40
2023-02-27T10:25:46.411Z,101420.80
2023-02-27T10:28:23.250Z,101422.40
2023-02-27T10:31:02.343Z,101426.40
2023-02-27T10:33:41.463Z,101415.20
2023-02-27T10:36:32.182Z,101414.00
2023-02-27T10:39:15.590Z,101413.60
2023-02-27T10:41:51.315Z,101415.40
2023-02-27T10:44:26.606Z,101418.80
2023-02-27T10:47:00.676Z,101411.00
2023-02-27T10:49:37.204Z,101412.20
2023-02-27T10:52:14.993Z,101409.00
2023-02-27T10:54:50.197Z,101415.40
2023-02-27T10:57:41.926Z,101410.40
2023-02-27T11:00:35.775Z,101406.80
2023-02-27T11:03:18.627Z,101406.80
2023-02-27T11:06:05.212Z,101406.60
2023-02-27T11:08:40.761Z,101403.00
2023-02-27T11:11:16.262Z,101405.60
2023-02-27T11:13:54.696Z,101405.40
2023-02-27T11:16:28.780Z,101409.20
2023-02-27T11:19:15.682Z,101405.20
2023-02-27T11:22:06.987Z,101398.60
2023-02-27T11:24:41.506Z,101389.60
2023-02-27T11:27:28.951Z,101390.80
2023-02-27T11:30:06.159Z,101393.80
2023-02-27T11:32:49.630Z,101401.00
2023-02-27T11:35:31.408Z,101401.80
2023-02-27T11:38:09.003Z,101406.80
2023-02-27T11:40:53.691Z,101413.20
2023-02-27T11:43:31.946Z,101415.80
2023-02-27T11:46:23.287Z,101416.00
2023-02-27T11:49:21.354Z,101415.20
2023-02-27T11:52:09.859Z,101413.20
2023-02-27T11:54:47.006Z,101420.00
2023-02-27T11:57:31.703Z,101426.20
2023-02-27T12:00:22.447Z,101426.60
2023-02-27T12:03:05.128Z,101420.20
2023-02-27T12:05:45.104Z,101420.40
2023-02-27T12:08:31.704Z,101416.20
2023-02-27T12:11:14.946Z,101416.20
2023-02-27T12:13:56.140Z,101414.40
2023-02-27T12:16:39.048Z,101419.60
2023-02-27T12:19:23.203Z,101424.00
2023-02-27T12:22:04.904Z,101427.60
2023-02-27T12:24:47.534Z,101428.20
2023-02-27T12:27:30.754Z,101429.60
2023-02-27T12:30:54.464Z,101435.40
2023-02-27T12:33:46.462Z,101435.80
2023-02-27T12:36:21.232Z,101435.40
2023-02-27T12:39:04.034Z,101435.40
2023-02-27T12:41:53.570Z,101436.80
2023-02-27T12:44:56.836Z,101433.20
2023-02-27T12:47:42.883Z,101438.20
2023-02-27T12:50:20.103Z,101433.60
2023-02-27T12:53:19.217Z,101438.20
2023-02-27T12:56:00.207Z,101435.20
2023-02-27T12:58:48.692Z,101429.60
2023-02-27T13:01:40.743Z,101432.80
2023-02-27T13:04:28.927Z,101436.00
2023-02-27T13:07:10.599Z,101437.80
2023-02-27T13:09:49.769Z,101435.00
2023-02-27T13:12:35.850Z,101439.60
2023-02-27T13:15:21.040Z,101438.80
2023-02-27T13:18:02.823Z,101435.20
2023-02-27T13:20:45.805Z,101437.60
2023-02-27T13:23:30.276Z,101441.40
2023-02-27T13:26:14.597Z,101439.00
2023-02-27T13:28:49.111Z,101439.20
2023-02-27T13:31:35.705Z,101440.60
2023-02-27T13:34:29.993Z,101434.00
2023-02-27T13:37:09.196Z,101439.00
2023-02-27T13:39:56.210Z,101438.60
2023-02-27T13:43:00.452Z,101442.60
2023-02-27T13:46:00.341Z,101443.00
2023-02-27T13:48:55.030Z,101451.80
2023-02-27T13:52:02.076Z,101448.00
2023-02-27T13:54:42.846Z,101458.80
2023-02-27T13:57:34.586Z,101455.60
2023-02-27T14:00:24.539Z,101460.80
2023-02-27T14:03:04.152Z,101466.80
2023-02-27T14:05:43.549Z,101467.20
2023-02-27T14:08:24.462Z,101471.80
2023-02-27T14:11:17.626Z,101474.40
2023-02-27T14:14:44.480Z,101480.40
2023-02-27T14:17:46.089Z,101481.80
2023-02-27T14:20:54.008Z,101478.60
2023-02-27T14:23:30.104Z,101491.20
2023-02-27T14:26:15.613Z,101489.20
2023-02-27T14:28:55.951Z,101492.40
2023-02-27T14:31:33.620Z,101493.60
2023-02-27T14:34:13.561Z,101499.00
2023-02-27T14:36:52.592Z,101495.40
2023-02-27T14:39:34.583Z,101494.40
2023-02-27T14:42:32.032Z,101500.60
2023-02-27T14:45:14.065Z,101499.00
2023-02-27T14:47:48.118Z,101495.60
2023-02-27T14:50:34.240Z,101501.80
2023-02-27T14:53:22.697Z,101505.20
2023-02-27T14:56:01.177Z,101497.80
2023-02-27T14:58:35.341Z,101508.40
2023-02-27T15:01:12.593Z,101510.60
2023-02-27T15:03:53.065Z,101516.20
2023-02-27T15:06:39.100Z,101516.60
2023-02-27T15:09:22.994Z,101521.80
2023-02-27T15:12:03.897Z,101524.20
2023-02-27T15:14:41.246Z,101528.80
2023-02-27T15:17:23.462Z,101537.20
2023-02-27T15:19:59.792Z,101538.20
2023-02-27T15:22:40.512Z,101541.60
2023-02-27T15:25:33.453Z,101547.00
2023-02-27T15:28:27.754Z,101551.20
2023-02-27T15:31:02.769Z,101554.20
2023-02-27T15:33:38.025Z,101557.80
2023-02-27T15:36:22.660Z,101556.20
2023-02-27T15:39:17.303Z,101560.20
2023-02-27T15:41:54.510Z,101560.40
2023-02-27T15:44:35.032Z,101565.80
2023-02-27T15:47:12.068Z,101570.40
2023-02-27T15:49:47.033Z,101568.40
2023-02-27T15:52:24.702Z,101573.60
2023-02-27T15:55:06.094Z,101581.20
2023-02-27T15:57:40.915Z,101588.60
2023-02-27T16:00:23.842Z,101585.00
2023-02-27T16:03:00.785Z,101587.40
2023-02-27T16:05:40.328Z,101595.40
2023-02-27T16:08:22.785Z,101598.80
2023-02-27T16:10:58.250Z,101600.20
2023-02-27T16:13:43.736Z,101610.40
2023-02-27T16:16:36.168Z,101612.20
2023-02-27T16:19:29.438Z,101606.00
2023-02-27T16:22:17.105Z,101611.60
2023-02-27T16:24:52.245Z,101610.20
2023-02-27T16:27:29.747Z,101608.80
2023-02-27T16:30:10.725Z,101611.80
2023-02-27T16:32:46.905Z,101620.40
2023-02-27T16:35:24.551Z,101623.60
2023-02-27T16:38:04.734Z,101620.60
2023-02-27T16:40:39.135Z,101626.00
2023-02-27T16:43:13.215Z,101623.60
2023-02-27T16:45:56.572Z,101636.00
2023-02-27T16:48:30.624Z,101634.40
2023-02-27T16:51:07.815Z,101635.20
2023-02-27T16:53:41.935Z,101643.20
2023-02-27T16:56:18.139Z,101644.00
2023-02-27T16:58:54.792Z,101647.00
2023-02-27T17:01:28.546Z,101648.20
2023-02-27T17:04:03.953Z,101644.80
2023-02-27T17:06:40.738Z,101649.00
2023-02-27T17:09:15.628Z,101654.00
2023-02-27T17:11:49.657Z,101652.40
2023-02-27T17:14:23.583Z,101653.60
2023-02-27T17:16:59.650Z,101651.20
2023-02-27T17:19:34.458Z,101650.60
2023-02-27T17:22:08.815Z,101653.40
2023-02-27T17:24:43.326Z,101656.20
2023-02-27T17:27:17.430Z,101662.40
2023-02-27T17:29:52.776Z,101659.20
2023-02-27T17:32:26.860Z,101669.00
2023-02-27T17:35:01.820Z,101663.40
2023-02-27T17:37:36.788Z,101660.40
2023-02-27T17:40:14.508Z,101668.00
2023-02-27T17:42:48.436Z,101674.60
2023-02-27T17:45:24.709Z,101674.20
2023-02-27T17:47:59.000Z,101675.80
2023-02-27T17:50:34.655Z,101676.00
2023-02-27T17:53:09.795Z,101677.80
2023-02-27T17:55:44.945Z,101681.60
2023-02-27T17:58:18.930Z,101682.40
2023-02-27T18:00:53.042Z,101688.80
2023-02-27T18:03:27.022Z,101689.80
2023-02-27T18:06:01.573Z,101690.40
2023-02-27T18:08:35.681Z,101690.00
2023-02-27T18:11:15.966Z,101691.20
2023-02-27T18:13:51.920Z,101698.80
2023-02-27T18:16:27.118Z,101696.80
2023-02-27T18:19:05.464Z,101700.40
2023-02-27T18:21:40.011Z,101710.20
2023-02-27T18:24:14.807Z,101716.80
2023-02-27T18:26:49.413Z,101714.40
2023-02-27T18:29:23.778Z,101721.20
2023-02-27T18:31:57.998Z,101723.80
2023-02-27T18:34:32.750Z,101722.80
2023-02-27T18:37:07.108Z,101724.80
2023-02-27T18:39:42.351Z,101726.40
2023-02-27T18:42:16.563Z,101726.40
2023-02-27T18:44:51.340Z,101731.40
2023-02-27T18:47:25.715Z,101734.60
2023-02-27T18:49:59.919Z,101745.00
2023-02-27T18:52:37.118Z,101749.60
2023-02-27T18:55:13.150Z,101749.60
2023-02-27T18:57:47.916Z,101758.60
2023-02-27T19:00:24.385Z,101758.60
2023-02-27T19:02:58.375Z,101756.80
2023-02-27T19:05:33.785Z,101757.20
2023-02-27T19:08:08.359Z,101767.20
2023-02-27T19:10:44.031Z,101765.20
2023-02-27T19:13:18.542Z,101767.40
2023-02-27T19:15:52.834Z,101772.60
2023-02-27T19:18:27.034Z,101774.00
2023-02-27T19:21:06.615Z,101782.80
2023-02-27T19:23:41.075Z,101781.00
2023-02-27T19:26:15.549Z,101784.00
2023-02-27T19:28:53.943Z,101787.00
2023-02-27T19:31:31.002Z,101790.60
2023-02-27T19:34:05.877Z,101788.80
2023-02-27T19:36:40.320Z,101786.40
2023-02-27T19:39:15.955Z,101790.80
2023-02-27T19:41:50.568Z,101795.20
2023-02-27T19:44:26.667Z,101791.00
2023-02-27T19:47:02.228Z,101793.60
2023-02-27T19:49:36.448Z,101793.80
2023-02-27T19:52:11.095Z,101800.80
2023-02-27T19:54:45.314Z,101798.00
2023-02-27T19:57:20.503Z,101795.00
2023-02-27T19:59:55.082Z,101797.00
2023-02-27T20:02:29.419Z,101795.80
2023-02-27T20:05:06.354Z,101803.20
2023-02-27T20:07:42.530Z,101801.60
2023-02-27T20:10:17.732Z,101809.80
2023-02-27T20:12:51.592Z,101806.80
2023-02-27T20:15:27.023Z,101815.00
2023-02-27T20:18:00.963Z,101814.80
2023-02-27T20:20:34.873Z,101820.20
2023-02-27T20:23:08.995Z,101815.80
2023-02-27T20:25:43.411Z,101816.60
2023-02-27T20:28:17.725Z,101818.80
2023-02-27T20:30:51.815Z,101819.60
2023-02-27T20:33:25.818Z,101816.80
2023-02-27T20:36:03.424Z,101815.80
2023-02-27T20:38:39.399Z,101814.40
2023-02-27T20:41:15.934Z,101818.40
2023-02-27T20:43:51.259Z,101818.00
2023-02-27T20:46:31.614Z,101816.80
2023-02-27T20:49:08.260Z,101821.60
2023-02-27T20:51:44.099Z,101821.60
2023-02-27T20:54:20.818Z,101822.40
2023-02-27T20:56:55.542Z,101825.00
2023-02-27T20:59:29.673Z,101827.60
2023-02-27T21:02:06.775Z,101825.00
2023-02-27T21:04:47.467Z,101821.20
2023-02-27T21:07:23.664Z,101818.40
2023-02-27T21:09:57.861Z,101819.60
2023-02-27T21:12:31.870Z,101819.40
2023-02-27T21:15:07.120Z,101818.00
2023-02-27T21:17:41.269Z,101814.80
2023-02-27T21:20:17.469Z,101817.20
2023-02-27T21:22:51.771Z,101818.20
2023-02-27T21:25:27.284Z,101818.80
2023-02-27T21:28:03.229Z,101818.00
2023-02-27T21:30:37.757Z,101812.60
2023-02-27T21:33:11.847Z,101812.20
2023-02-27T21:35:51.055Z,101824.60
2023-02-27T21:38:25.175Z,101822.80
2023-02-27T21:40:59.483Z,101826.40
2023-02-27T21:43:33.592Z,101825.20
2023-02-27T21:46:13.192Z,101824.80
2023-02-27T21:48:47.564Z,101826.80
2023-02-27T21:51:38.295Z,101820.60
2023-02-27T21:54:16.783Z,101824.40
2023-02-27T21:56:51.619Z,101821.40
2023-02-27T21:59:28.315Z,101821.00
2023-02-27T22:02:02.616Z,101819.80
2023-02-27T22:04:36.817Z,101826.80
2023-02-27T22:07:11.557Z,101823.20
2023-02-27T22:09:45.574Z,101821.60
2023-02-27T22:12:19.598Z,101825.40
2023-02-27T22:14:53.690Z,101817.20
2023-02-27T22:17:28.038Z,101826.00
2023-02-27T22:20:02.027Z,101828.80
2023-02-27T22:22:36.047Z,101824.40
2023-02-27T22:25:11.235Z,101825.00
2023-02-27T22:27:45.760Z,101825.00
2023-02-27T22:30:20.591Z,101820.40
2023-02-27T22:32:54.872Z,101817.20
2023-02-27T22:35:29.388Z,101823.00
2023-02-27T22:38:03.452Z,101818.60
2023-02-27T22:40:37.518Z,101821.40
2023-02-27T22:43:11.976Z,101817.40
2023-02-27T22:45:51.140Z,101816.00
2023-02-27T22:48:24.914Z,101822.00
2023-02-27T22:51:06.045Z,101813.40
2023-02-27T22:53:40.645Z,101816.00
2023-02-27T22:56:17.858Z,101814.20
2023-02-27T22:58:52.359Z,101812.40
2023-02-27T23:01:29.825Z,101812.20
2023-02-27T23:04:06.102Z,101807.40
2023-02-27T23:06:43.125Z,101812.60
2023-02-27T23:09:20.280Z,101813.80
2023-02-27T23:11:54.393Z,101814.00
2023-02-27T23:14:29.727Z,101814.80
2023-02-27T23:17:03.417Z,101819.40
2023-02-27T23:19:37.182Z,101820.20
2023-02-27T23:22:10.837Z,101822.80
2023-02-27T23:24:44.949Z,101825.80
2023-02-27T23:27:25.772Z,101828.40
2023-02-27T23:30:01.513Z,101825.80
2023-02-27T23:32:43.249Z,101827.60
2023-02-27T23:35:22.429Z,101830.80
2023-02-27T23:37:59.123Z,101833.40
2023-02-27T23:40:32.900Z,101834.60
2023-02-27T23:43:06.754Z,101831.80
2023-02-27T23:45:40.670Z,101836.00
2023-02-27T23:48:14.427Z,101835.40
2023-02-27T23:50:48.835Z,101834.40
2023-02-27T23:53:22.433Z,101828.60
2023-02-27T23:55:56.116Z,101834.60
2023-02-27T23:58:29.858Z,101837.60
